Time;durP1;ratioP1;P1;durP2;ratioP2;P2;SDS_P1;SDS_P2;PMS_P1;PMS_P2;Temp;Humidity;BMP_temperature;BMP_pressure;BME280_temperature;BME280_humidity;BME280_pressure;Samples;Min_cycle;Max_cycle;Signal;HPM_P1;HPM_P2
2022/05/13 00:03:16;;;;;;;14.57;5.20;;;;;;;;;;10358998;28;20112;-76
2022/05/13 00:08:21;;;;;;;10.73;5.63;;;;;;;;;;10338825;28;20137;-75
2022/05/13 00:13:25;;;;;;;9.27;5.90;;;;;;;;;;10346255;28;20129;-77
2022/05/13 00:18:28;;;;;;;14.00;6.30;;;;;;;;;;10348713;28;20731;-76
2022/05/13 00:23:32;;;;;;;6.20;3.10;;;;;;;;;;10350890;28;20169;-77
2022/05/13 00:28:35;;;;;;;11.48;5.30;;;;;;;;;;10367124;28;20037;-76
2022/05/13 00:33:39;;;;;;;9.90;5.90;;;;;;;;;;10347013;28;20125;-75
2022/05/13 00:38:43;;;;;;;10.20;5.40;;;;;;;;;;10359981;28;20038;-75
2022/05/13 00:43:48;;;;;;;12.60;5.80;;;;;;;;;;10369881;28;20124;-76
2022/05/13 00:48:51;;;;;;;9.63;5.20;;;;;;;;;;10344410;28;20074;-77
2022/05/13 00:53:57;;;;;;;11.07;5.47;;;;;;;;;;10359436;28;20097;-77
2022/05/13 00:59:01;;;;;;;9.68;5.30;;;;;;;;;;10365854;28;20092;-76
2022/05/13 01:04:06;;;;;;;10.77;5.60;;;;;;;;;;10339658;28;20517;-76
2022/05/13 01:09:10;;;;;;;10.98;5.40;;;;;;;;;;10340159;28;20063;-77
2022/05/13 01:14:16;;;;;;;11.38;5.70;;;;;;;;;;10363039;28;20133;-77
2022/05/13 01:19:19;;;;;;;10.00;5.45;;;;;;;;;;10346325;28;20038;-77
2022/05/13 01:24:24;;;;;;;5.22;3.47;;;;;;;;;;10372224;28;20041;-78
2022/05/13 01:29:36;;;;;;;12.33;5.80;;;;;;;;;;10364182;28;20041;-78
2022/05/13 01:34:58;;;;;;;9.27;5.45;;;;;;;;;;10366919;28;20053;-77
2022/05/13 01:40:03;;;;;;;9.77;5.63;;;;;;;;;;10365458;28;20042;-77
2022/05/13 01:45:08;;;;;;;11.50;5.90;;;;;;;;;;10364564;28;20588;-77
2022/05/13 01:50:11;;;;;;;10.57;5.30;;;;;;;;;;10344256;28;20038;-76
2022/05/13 01:55:19;;;;;;;7.40;4.43;;;;;;;;;;10359053;28;20488;-76
2022/05/13 02:00:23;;;;;;;10.43;5.70;;;;;;;;;;10359431;28;20038;-76
2022/05/13 02:05:25;;;;;;;;;;;;;;;;;;10361003;28;20061;-76
2022/05/13 02:10:30;;;;;;;9.68;6.18;;;;;;;;;;10363302;28;20441;-74
2022/05/13 02:15:33;;;;;;;8.38;4.53;;;;;;;;;;10359936;28;20733;-76
2022/05/13 02:20:35;;;;;;;7.60;4.80;;;;;;;;;;10343566;28;20176;-79
2022/05/13 02:25:40;;;;;;;7.90;4.73;;;;;;;;;;10353643;28;20132;-77
2022/05/13 02:30:42;;;;;;;9.77;5.97;;;;;;;;;;10368253;28;20296;-76
2022/05/13 02:35:45;;;;;;;5.50;3.25;;;;;;;;;;10342710;28;20105;-76
2022/05/13 02:46:12;;;;;;;9.82;4.07;;;;;;;;;;10363174;28;20430;-77
2022/05/13 02:51:15;;;;;;;10.07;5.90;;;;;;;;;;10358904;28;20037;-75
2022/05/13 02:56:18;;;;;;;;;;;;;;;;;;10361737;28;20544;-74
2022/05/13 03:01:22;;;;;;;5.65;3.17;;;;;;;;;;10355263;28;19980;-78
2022/05/13 03:06:25;;;;;;;8.32;4.88;;;;;;;;;;10359536;28;20025;-76
2022/05/13 03:11:29;;;;;;;9.43;5.72;;;;;;;;;;10356524;28;20069;-75
2022/05/13 03:16:34;;;;;;;12.00;6.22;;;;;;;;;;10357154;28;20034;-76
2022/05/13 03:21:37;;;;;;;10.15;4.93;;;;;;;;;;10364657;28;20050;-77
2022/05/13 03:26:40;;;;;;;8.93;3.77;;;;;;;;;;10341325;28;20125;-77
2022/05/13 03:31:44;;;;;;;9.02;5.18;;;;;;;;;;10357581;28;20140;-76
2022/05/13 03:36:49;;;;;;;9.48;5.32;;;;;;;;;;10346331;28;20042;-76
2022/05/13 03:41:52;;;;;;;11.13;5.60;;;;;;;;;;10353521;28;20437;-77
2022/05/13 03:46:56;;;;;;;8.05;4.85;;;;;;;;;;10342158;28;20433;-73
2022/05/13 03:52:03;;;;;;;8.88;4.20;;;;;;;;;;10359354;28;20044;-75
2022/05/13 03:57:07;;;;;;;6.28;4.00;;;;;;;;;;10357514;28;20041;-75
2022/05/13 04:02:12;;;;;;;10.70;3.80;;;;;;;;;;10345258;28;20038;-77
2022/05/13 04:17:57;;;;;;;5.93;3.53;;;;;;;;;;10358653;28;20045;-77
2022/05/13 04:23:02;;;;;;;4.45;2.97;;;;;;;;;;10340566;28;20076;-77
2022/05/13 04:28:05;;;;;;;4.70;2.85;;;;;;;;;;10342362;28;20074;-78
2022/05/13 04:33:12;;;;;;;6.10;3.72;;;;;;;;;;10353291;28;20065;-75
2022/05/13 04:38:16;;;;;;;7.00;3.60;;;;;;;;;;10357575;28;20046;-78
2022/05/13 04:43:18;;;;;;;5.00;3.17;;;;;;;;;;10340799;28;20482;-79
2022/05/13 04:48:26;;;;;;;7.37;4.10;;;;;;;;;;10345557;28;20042;-78
2022/05/13 04:53:30;;;;;;;8.73;4.18;;;;;;;;;;10353240;28;20097;-77
2022/05/13 04:58:33;;;;;;;8.02;4.20;;;;;;;;;;10354733;28;20052;-79
2022/05/13 05:03:40;;;;;;;7.47;3.65;;;;;;;;;;10363375;28;20074;-78
2022/05/13 05:08:43;;;;;;;5.72;3.63;;;;;;;;;;10368991;28;20045;-78
2022/05/13 05:13:46;;;;;;;;;;;;;;;;;;10340662;28;20042;-77
2022/05/13 05:18:50;;;;;;;7.15;3.40;;;;;;;;;;10360194;28;19976;-77
2022/05/13 05:23:55;;;;;;;9.60;3.83;;;;;;;;;;10361854;28;20033;-76
2022/05/13 05:28:58;;;;;;;7.65;3.90;;;;;;;;;;10337967;28;20066;-76
2022/05/13 05:34:02;;;;;;;6.80;4.00;;;;;;;;;;10354164;28;20125;-76
2022/05/13 05:39:05;;;;;;;13.73;4.20;;;;;;;;;;10366277;28;20030;-77
2022/05/13 05:44:09;;;;;;;7.50;4.35;;;;;;;;;;10362770;28;20485;-78
2022/05/13 05:49:12;;;;;;;;;;;;;;;;;;10367550;28;20535;-78
2022/05/13 05:59:37;;;;;;;9.27;4.35;;;;;;;;;;10344871;28;20180;-76
2022/05/13 06:04:40;;;;;;;6.50;4.07;;;;;;;;;;10344853;28;20078;-76
2022/05/13 06:09:45;;;;;;;9.43;4.55;;;;;;;;;;10339318;28;20033;-77
2022/05/13 06:14:47;;;;;;;8.95;4.75;;;;;;;;;;10358834;28;20124;-76
2022/05/13 06:19:50;;;;;;;9.83;5.07;;;;;;;;;;10370600;28;20439;-75
2022/05/13 06:24:54;;;;;;;8.70;4.43;;;;;;;;;;10373698;28;20026;-76
2022/05/13 06:29:57;;;;;;;9.25;4.38;;;;;;;;;;10375487;28;20065;-75
2022/05/13 06:35:00;;;;;;;9.27;4.90;;;;;;;;;;10340950;28;20213;-76
2022/05/13 06:40:04;;;;;;;10.97;4.70;;;;;;;;;;10354368;28;20044;-77
2022/05/13 06:45:07;;;;;;;7.38;3.80;;;;;;;;;;10344874;28;20764;-74
2022/05/13 06:50:11;;;;;;;6.38;2.90;;;;;;;;;;10371602;28;20050;-75
2022/05/13 06:55:18;;;;;;;5.85;3.17;;;;;;;;;;10347381;28;20140;-78
2022/05/13 07:00:21;;;;;;;7.30;4.05;;;;;;;;;;10356564;28;20044;-78
2022/05/13 07:05:24;;;;;;;7.63;4.05;;;;;;;;;;10355959;28;20167;-77
2022/05/13 07:10:29;;;;;;;8.68;4.63;;;;;;;;;;10336038;28;20048;-74
2022/05/13 07:15:32;;;;;;;8.85;3.17;;;;;;;;;;10356780;28;20042;-76
2022/05/13 07:20:35;;;;;;;;;;;;;;;;;;10355197;28;20043;-77
2022/05/13 07:25:39;;;;;;;9.00;4.20;;;;;;;;;;10345587;28;19943;-76
2022/05/13 07:30:43;;;;;;;4.30;2.60;;;;;;;;;;10355088;28;20071;-78
2022/05/13 07:35:46;;;;;;;10.05;4.07;;;;;;;;;;10353311;28;20514;-78
2022/05/13 07:46:11;;;;;;;7.90;4.00;;;;;;;;;;10335003;28;20069;-75
2022/05/13 07:51:14;;;;;;;6.38;4.32;;;;;;;;;;10331892;28;20528;-76
2022/05/13 07:56:18;;;;;;;3.78;2.65;;;;;;;;;;10327550;28;20108;-77
2022/05/13 08:01:21;;;;;;;4.93;3.42;;;;;;;;;;10319831;28;20046;-77
2022/05/13 08:06:24;;;;;;;7.53;3.70;;;;;;;;;;10345974;28;20150;-79
2022/05/13 08:11:30;;;;;;;8.02;4.18;;;;;;;;;;10354560;28;20183;-77
2022/05/13 08:16:35;;;;;;;7.90;4.18;;;;;;;;;;10352706;28;20022;-77
2022/05/13 08:21:38;;;;;;;4.60;2.42;;;;;;;;;;10350521;28;20513;-77
2022/05/13 08:26:43;;;;;;;5.05;3.15;;;;;;;;;;10350994;28;20088;-77
2022/05/13 08:31:45;;;;;;;5.63;3.70;;;;;;;;;;10327455;28;20140;-77
2022/05/13 08:36:49;;;;;;;;;;;;;;;;;;10343927;28;20030;-76
2022/05/13 08:42:00;;;;;;;9.70;4.68;;;;;;;;;;10354548;28;19929;-77
2022/05/13 08:47:08;;;;;;;6.55;4.20;;;;;;;;;;10358725;28;20057;-76
2022/05/13 08:57:49;;;;;;;8.88;4.75;;;;;;;;;;10339804;28;20530;-77
2022/05/13 09:02:56;;;;;;;11.23;5.28;;;;;;;;;;10350098;28;20044;-74
2022/05/13 09:08:00;;;;;;;14.68;5.80;;;;;;;;;;10342802;28;20065;-75
2022/05/13 09:13:08;;;;;;;15.25;5.70;;;;;;;;;;10342585;28;20074;-76
2022/05/13 09:18:14;;;;;;;21.63;6.43;;;;;;;;;;10360424;28;20041;-76
2022/05/13 09:23:18;;;;;;;15.05;6.43;;;;;;;;;;10362848;28;20046;-77
2022/05/13 09:28:27;;;;;;;12.18;5.32;;;;;;;;;;10347667;28;20391;-77
2022/05/13 09:33:31;;;;;;;10.93;4.93;;;;;;;;;;10342750;28;20077;-77
2022/05/13 09:38:41;;;;;;;16.42;5.90;;;;;;;;;;10340862;28;20487;-76
2022/05/13 09:43:53;;;;;;;13.33;5.90;;;;;;;;;;10360621;28;20100;-76
2022/05/13 09:48:58;;;;;;;16.77;6.57;;;;;;;;;;10360072;28;20300;-78
2022/05/13 09:54:06;;;;;;;12.50;6.63;;;;;;;;;;10366242;28;20048;-76
2022/05/13 09:59:17;;;;;;;14.90;5.63;;;;;;;;;;10365325;28;20100;-76
2022/05/13 10:04:21;;;;;;;9.27;5.20;;;;;;;;;;10353244;28;20541;-76
2022/05/13 10:14:48;;;;;;;11.48;4.53;;;;;;;;;;10374343;28;20130;-76
2022/05/13 10:19:53;;;;;;;7.95;3.83;;;;;;;;;;10369347;28;20495;-75
2022/05/13 10:25:00;;;;;;;13.35;4.40;;;;;;;;;;10354406;28;20458;-77
2022/05/13 10:30:06;;;;;;;10.95;3.97;;;;;;;;;;10374722;28;20045;-76
2022/05/13 10:35:11;;;;;;;7.00;3.70;;;;;;;;;;10351711;28;20041;-77
2022/05/13 10:40:17;;;;;;;8.93;3.58;;;;;;;;;;10354736;28;20104;-76
2022/05/13 10:45:24;;;;;;;10.15;4.20;;;;;;;;;;10368805;28;20068;-76
2022/05/13 10:50:33;;;;;;;18.98;6.30;;;;;;;;;;10365437;28;20077;-77
2022/05/13 10:55:41;;;;;;;8.23;3.85;;;;;;;;;;10365857;28;20034;-76
2022/05/13 11:00:48;;;;;;;7.90;3.35;;;;;;;;;;10359391;28;20049;-77
2022/05/13 11:05:56;;;;;;;8.00;3.72;;;;;;;;;;10362022;28;20598;-78
2022/05/13 11:11:04;;;;;;;7.43;3.95;;;;;;;;;;10325878;28;20042;-77
2022/05/13 11:16:10;;;;;;;8.63;3.63;;;;;;;;;;10341800;28;20513;-77
2022/05/13 11:21:19;;;;;;;5.47;3.50;;;;;;;;;;10357132;28;20129;-74
2022/05/13 11:26:24;;;;;;;3.85;2.50;;;;;;;;;;10360980;28;20041;-76
2022/05/13 11:31:40;;;;;;;5.32;2.47;;;;;;;;;;10357025;28;20046;-76
2022/05/13 11:36:46;;;;;;;3.67;2.17;;;;;;;;;;10368641;28;20060;-76
2022/05/13 11:41:58;;;;;;;6.15;2.80;;;;;;;;;;10361203;28;20064;-77
2022/05/13 11:47:20;;;;;;;5.60;3.13;;;;;;;;;;10337545;28;20057;-76
2022/05/13 11:52:29;;;;;;;9.48;2.80;;;;;;;;;;10354423;28;20398;-77
2022/05/13 11:57:41;;;;;;;5.43;2.80;;;;;;;;;;10351033;28;20046;-77
2022/05/13 12:02:52;;;;;;;6.75;3.80;;;;;;;;;;10372437;28;20045;-77
2022/05/13 12:08:02;;;;;;;6.18;3.15;;;;;;;;;;10345628;28;20462;-77
2022/05/13 12:13:09;;;;;;;13.43;4.75;;;;;;;;;;10357230;28;20072;-78
2022/05/13 12:18:19;;;;;;;5.50;3.50;;;;;;;;;;10370023;28;20048;-75
2022/05/13 12:23:26;;;;;;;7.07;3.55;;;;;;;;;;10373735;28;20056;-78
2022/05/13 12:28:38;;;;;;;5.15;2.65;;;;;;;;;;10378791;28;20124;-78
2022/05/13 12:33:46;;;;;;;8.32;5.15;;;;;;;;;;10364696;28;20038;-77
2022/05/13 12:39:12;;;;;;;3.63;2.53;;;;;;;;;;10355585;28;20126;-77
2022/05/13 12:44:18;;;;;;;6.35;3.17;;;;;;;;;;10370783;28;20037;-78
2022/05/13 12:49:25;;;;;;;4.50;2.50;;;;;;;;;;10360110;28;20033;-77
2022/05/13 12:54:30;;;;;;;5.47;3.20;;;;;;;;;;10360335;28;20124;-75
2022/05/13 12:59:35;;;;;;;7.35;3.55;;;;;;;;;;10357555;28;20045;-76
2022/05/13 13:04:45;;;;;;;4.35;3.58;;;;;;;;;;10366425;28;20034;-76
2022/05/13 13:09:50;;;;;;;7.72;3.10;;;;;;;;;;10337326;28;20121;-74
2022/05/13 13:14:56;;;;;;;3.53;2.50;;;;;;;;;;10359110;28;20180;-78
2022/05/13 13:20:02;;;;;;;5.75;3.38;;;;;;;;;;10362876;28;20137;-75
2022/05/13 13:25:23;;;;;;;10.15;3.50;;;;;;;;;;10342880;28;20060;-76
2022/05/13 13:30:27;;;;;;;4.17;2.87;;;;;;;;;;10343661;28;20093;-75
2022/05/13 13:35:38;;;;;;;9.23;4.72;;;;;;;;;;10360174;28;20038;-78
2022/05/13 13:40:43;;;;;;;6.63;2.88;;;;;;;;;;10368693;28;20116;-77
2022/05/13 13:45:49;;;;;;;6.40;3.45;;;;;;;;;;10359259;28;20126;-77
2022/05/13 13:50:54;;;;;;;5.38;2.63;;;;;;;;;;10365217;28;20034;-76
2022/05/13 13:56:00;;;;;;;6.20;3.20;;;;;;;;;;10336832;28;20255;-77
2022/05/13 14:01:14;;;;;;;5.38;3.22;;;;;;;;;;10373920;28;20059;-78
2022/05/13 14:06:20;;;;;;;4.88;3.25;;;;;;;;;;10346432;28;20038;-76
2022/05/13 14:11:24;;;;;;;7.60;3.25;;;;;;;;;;10339225;28;20037;-77
2022/05/13 14:16:51;;;;;;;8.00;3.55;;;;;;;;;;10357295;28;20042;-76
2022/05/13 14:21:59;;;;;;;9.05;3.03;;;;;;;;;;10365517;28;20046;-77
2022/05/13 14:27:06;;;;;;;9.38;3.75;;;;;;;;;;10358181;28;20041;-77
2022/05/13 14:32:11;;;;;;;6.18;2.72;;;;;;;;;;10342762;28;20042;-76
2022/05/13 14:37:29;;;;;;;7.10;3.53;;;;;;;;;;10341614;28;20457;-76
2022/05/13 14:42:35;;;;;;;8.10;2.90;;;;;;;;;;10361635;28;20529;-74
2022/05/13 14:47:39;;;;;;;8.63;3.25;;;;;;;;;;10348586;28;20529;-77
2022/05/13 14:52:45;;;;;;;8.93;3.30;;;;;;;;;;10354948;28;20473;-75
2022/05/13 14:57:48;;;;;;;6.10;3.47;;;;;;;;;;10340700;28;20569;-77
2022/05/13 15:02:59;;;;;;;5.65;3.55;;;;;;;;;;10364484;28;20096;-77
2022/05/13 15:08:24;;;;;;;6.25;2.65;;;;;;;;;;10358038;28;20022;-78
2022/05/13 15:13:27;;;;;;;7.63;3.20;;;;;;;;;;10368767;28;20056;-77
2022/05/13 15:18:32;;;;;;;6.20;3.05;;;;;;;;;;10347981;28;20292;-77
2022/05/13 15:23:37;;;;;;;9.27;3.80;;;;;;;;;;10355169;28;20045;-78
2022/05/13 15:28:43;;;;;;;7.35;3.50;;;;;;;;;;10341388;28;20226;-77
2022/05/13 15:33:46;;;;;;;6.15;3.25;;;;;;;;;;10361442;28;20140;-77
2022/05/13 15:38:50;;;;;;;8.75;4.72;;;;;;;;;;10335595;28;20147;-77
2022/05/13 15:43:53;;;;;;;10.75;3.92;;;;;;;;;;10363111;28;20037;-75
2022/05/13 15:52:40;;;;;;;9.65;4.00;;;;;;;;;;10358515;28;20046;-77
2022/05/13 15:54:22;;;;;;;10.43;4.10;;;;;;;;;;10348120;28;20045;-76
2022/05/13 15:59:25;;;;;;;7.93;3.85;;;;;;;;;;10336171;28;20458;-77
2022/05/13 16:04:28;;;;;;;5.90;3.40;;;;;;;;;;10341192;28;20424;-78
2022/05/13 16:09:33;;;;;;;7.30;3.60;;;;;;;;;;10357687;28;20037;-80
2022/05/13 16:14:36;;;;;;;6.13;3.13;;;;;;;;;;10343893;28;20069;-75
2022/05/13 16:19:41;;;;;;;8.43;4.07;;;;;;;;;;10357939;28;20118;-77
2022/05/13 16:24:46;;;;;;;5.55;3.35;;;;;;;;;;10362818;28;20053;-78
2022/05/13 16:29:49;;;;;;;8.73;5.32;;;;;;;;;;10347066;28;20096;-78
2022/05/13 16:34:56;;;;;;;7.32;4.00;;;;;;;;;;10359390;28;20081;-77
2022/05/13 16:40:00;;;;;;;8.05;3.80;;;;;;;;;;10334242;28;20120;-77
2022/05/13 16:45:03;;;;;;;5.35;3.20;;;;;;;;;;10365989;28;20026;-77
2022/05/13 16:50:06;;;;;;;;;;;;;;;;;;10359384;28;20471;-79
2022/05/13 16:55:10;;;;;;;8.82;4.32;;;;;;;;;;10353928;28;19965;-78
2022/05/13 17:00:15;;;;;;;4.40;3.08;;;;;;;;;;10363377;28;20038;-76
2022/05/13 17:05:18;;;;;;;10.18;2.88;;;;;;;;;;10365040;28;20096;-76
2022/05/13 17:21:10;;;;;;;7.30;4.15;;;;;;;;;;10345115;28;20069;-77
2022/05/13 17:26:15;;;;;;;7.63;4.03;;;;;;;;;;10374235;28;20053;-77
2022/05/13 17:31:18;;;;;;;9.38;4.28;;;;;;;;;;10352831;28;20128;-76
2022/05/13 17:36:21;;;;;;;8.73;4.20;;;;;;;;;;10362321;28;20124;-77
2022/05/13 17:41:25;;;;;;;10.75;5.47;;;;;;;;;;10346276;28;20104;-76
2022/05/13 17:46:28;;;;;;;10.05;4.65;;;;;;;;;;10364560;28;20506;-77
2022/05/13 17:51:31;;;;;;;7.30;3.50;;;;;;;;;;10366833;28;20050;-74
2022/05/13 17:56:37;;;;;;;7.75;4.10;;;;;;;;;;10366956;28;20033;-77
2022/05/13 18:01:39;;;;;;;6.75;3.67;;;;;;;;;;10344557;28;20062;-77
2022/05/13 18:06:42;;;;;;;12.05;4.60;;;;;;;;;;10360811;28;20406;-76
2022/05/13 18:11:47;;;;;;;9.48;4.32;;;;;;;;;;10365802;28;20493;-77
2022/05/13 18:16:51;;;;;;;7.90;4.78;;;;;;;;;;10361286;28;20269;-75
2022/05/13 18:21:54;;;;;;;9.48;4.90;;;;;;;;;;10362987;28;20053;-77
2022/05/13 18:26:59;;;;;;;8.85;5.30;;;;;;;;;;10369487;28;20612;-78
2022/05/13 18:32:02;;;;;;;10.30;4.70;;;;;;;;;;10365260;28;20046;-76
2022/05/13 18:37:06;;;;;;;13.43;5.80;;;;;;;;;;10335273;28;20133;-78
2022/05/13 18:47:31;;;;;;;13.43;5.85;;;;;;;;;;10364077;28;20100;-74
2022/05/13 18:52:34;;;;;;;10.33;5.10;;;;;;;;;;10364246;28;20037;-75
2022/05/13 18:57:39;;;;;;;11.70;5.50;;;;;;;;;;10360043;28;20684;-77
2022/05/13 19:02:42;;;;;;;12.63;6.00;;;;;;;;;;10361856;28;20049;-76
2022/05/13 19:07:45;;;;;;;14.90;6.85;;;;;;;;;;10364535;28;20057;-77
2022/05/13 19:12:49;;;;;;;26.40;10.83;;;;;;;;;;10352346;28;20883;-77
2022/05/13 19:17:52;;;;;;;14.15;7.20;;;;;;;;;;10361523;28;20351;-77
2022/05/13 19:22:55;;;;;;;25.75;12.32;;;;;;;;;;10337418;28;20168;-75
2022/05/13 19:27:59;;;;;;;23.65;11.50;;;;;;;;;;10342412;28;20078;-75
2022/05/13 19:33:04;;;;;;;17.02;8.73;;;;;;;;;;10357857;28;20057;-75
2022/05/13 19:38:08;;;;;;;21.13;10.27;;;;;;;;;;10367181;28;20414;-76
2022/05/13 19:43:13;;;;;;;12.27;6.80;;;;;;;;;;10359039;28;20482;-76
2022/05/13 19:48:16;;;;;;;13.63;6.55;;;;;;;;;;10347195;28;20045;-78
2022/05/13 19:53:21;;;;;;;20.55;10.70;;;;;;;;;;10353218;28;20129;-75
2022/05/13 19:58:25;;;;;;;15.25;7.82;;;;;;;;;;10358776;28;20038;-78
2022/05/13 20:03:30;;;;;;;14.98;7.45;;;;;;;;;;10358556;28;20571;-76
2022/05/13 20:13:55;;;;;;;22.00;9.38;;;;;;;;;;10355533;28;20045;-76
2022/05/13 20:18:58;;;;;;;18.70;9.82;;;;;;;;;;10355758;28;20465;-77
2022/05/13 20:24:01;;;;;;;22.75;10.93;;;;;;;;;;10364211;28;20413;-77
2022/05/13 20:29:06;;;;;;;18.60;9.37;;;;;;;;;;10363959;28;20121;-77
2022/05/13 20:34:10;;;;;;;20.42;10.23;;;;;;;;;;10348858;28;20297;-76
2022/05/13 20:39:13;;;;;;;24.30;11.50;;;;;;;;;;10363139;28;20137;-77
2022/05/13 20:44:18;;;;;;;20.83;10.18;;;;;;;;;;10354176;28;20037;-76
2022/05/13 20:49:20;;;;;;;14.25;8.25;;;;;;;;;;10369124;28;20061;-75
2022/05/13 20:54:23;;;;;;;15.37;8.13;;;;;;;;;;10354243;28;20100;-76
2022/05/13 20:59:28;;;;;;;15.23;8.00;;;;;;;;;;10347707;28;20127;-74
2022/05/13 21:04:37;;;;;;;17.27;8.48;;;;;;;;;;10371004;28;20049;-74
2022/05/13 21:09:40;;;;;;;19.20;10.10;;;;;;;;;;10362645;28;20034;-76
2022/05/13 21:14:45;;;;;;;21.63;11.25;;;;;;;;;;10364741;28;20049;-76
2022/05/13 21:19:48;;;;;;;13.55;7.20;;;;;;;;;;10359914;28;20249;-75
2022/05/13 21:24:50;;;;;;;22.17;9.53;;;;;;;;;;10344334;28;20129;-78
2022/05/13 21:29:55;;;;;;;20.60;10.90;;;;;;;;;;10361483;28;20130;-77
2022/05/13 21:40:20;;;;;;;25.50;12.25;;;;;;;;;;10337555;28;20033;-76
2022/05/13 21:45:25;;;;;;;21.63;10.25;;;;;;;;;;10361051;28;20406;-79
2022/05/13 21:50:29;;;;;;;18.67;9.55;;;;;;;;;;10360135;28;20050;-77
2022/05/13 21:55:34;;;;;;;30.60;15.77;;;;;;;;;;10353905;28;20042;-76
2022/05/13 22:01:00;;;;;;;25.92;13.07;;;;;;;;;;10365383;28;20120;-76
2022/05/13 22:06:07;;;;;;;25.35;12.27;;;;;;;;;;10361409;28;20104;-76
2022/05/13 22:11:10;;;;;;;26.20;13.30;;;;;;;;;;10362159;28;20034;-75
2022/05/13 22:16:15;;;;;;;20.60;9.60;;;;;;;;;;10342899;28;20129;-76
2022/05/13 22:21:18;;;;;;;17.25;8.90;;;;;;;;;;10341168;28;20110;-73
2022/05/13 22:26:21;;;;;;;20.57;11.17;;;;;;;;;;10360879;28;20034;-76
2022/05/13 22:31:25;;;;;;;25.03;10.77;;;;;;;;;;10360868;28;20148;-74
2022/05/13 22:36:28;;;;;;;23.63;10.45;;;;;;;;;;10358192;28;20045;-77
2022/05/13 22:41:31;;;;;;;20.70;10.03;;;;;;;;;;10361113;28;20038;-77
2022/05/13 22:46:35;;;;;;;25.70;11.50;;;;;;;;;;10359245;28;20055;-77
2022/05/13 22:51:39;;;;;;;24.50;10.43;;;;;;;;;;10354499;28;20074;-75
2022/05/13 22:56:42;;;;;;;19.00;10.20;;;;;;;;;;10358333;28;20034;-75
2022/05/13 23:01:46;;;;;;;22.45;10.52;;;;;;;;;;10356816;28;20037;-77
2022/05/13 23:12:10;;;;;;;29.77;10.75;;;;;;;;;;10337206;28;20360;-75
2022/05/13 23:17:14;;;;;;;23.38;11.18;;;;;;;;;;10355328;28;20040;-76
2022/05/13 23:22:17;;;;;;;21.25;10.05;;;;;;;;;;10346889;28;20372;-76
2022/05/13 23:27:20;;;;;;;24.27;10.63;;;;;;;;;;10356329;28;20041;-75
2022/05/13 23:32:24;;;;;;;24.75;11.77;;;;;;;;;;10353618;28;20042;-75
2022/05/13 23:37:27;;;;;;;21.20;10.38;;;;;;;;;;10335975;28;20613;-75
2022/05/13 23:42:30;;;;;;;20.25;11.05;;;;;;;;;;10361280;28;20112;-75
2022/05/13 23:47:34;;;;;;;19.90;10.18;;;;;;;;;;10361767;28;20467;-75
2022/05/13 23:57:57;;;;;;;21.08;10.68;;;;;;;;;;10353025;28;20065;-78
